Terminal Aerodrome Forecast
Issued by NWS Cleveland, OH

Home | Current Version | Previous Version | Graphics & Text | Print | Product List | Glossary On
Versions: 1 2 3 4 5 6 7 8 9 10 11 12 13 14
000
FTUS41 KCLE 181732
TAFMFD
TAF
KMFD 181732Z 1818/1918 VRB03KT P6SM SCT050 BKN150
     FM191000 00000KT P6SM BKN025 BKN050
     FM191400 VRB04KT P6SM BKN035=

USA.gov is the U.S. government's official web portal to all federal, state and local government web resources and services.